createdAt,value
2018-12-30T00:00:42.286Z,49.00
2018-12-30T00:03:18.952Z,64.87
2018-12-30T00:05:50.450Z,56.33
2018-12-30T00:08:23.669Z,51.10
2018-12-30T00:11:00.737Z,44.03
2018-12-30T00:13:33.024Z,54.13
2018-12-30T00:16:03.098Z,60.27
2018-12-30T00:18:39.365Z,58.10
2018-12-30T00:21:15.871Z,66.70
2018-12-30T00:23:48.534Z,59.50
2018-12-30T00:26:20.988Z,53.37
2018-12-30T00:28:54.675Z,65.20
2018-12-30T00:31:37.985Z,46.23
2018-12-30T00:34:10.005Z,57.37
2018-12-30T00:36:43.795Z,73.70
2018-12-30T00:39:15.430Z,98.23
2018-12-30T00:41:50.338Z,77.07
2018-12-30T00:44:25.271Z,73.67
2018-12-30T00:47:00.171Z,64.80
2018-12-30T00:49:31.879Z,57.03
2018-12-30T00:52:07.984Z,69.47
2018-12-30T00:54:39.569Z,64.20
2018-12-30T00:57:10.641Z,55.20
2018-12-30T00:59:40.955Z,68.73
2018-12-30T01:05:03.832Z,62.77
2018-12-30T01:07:54.739Z,70.43
2018-12-30T01:10:25.505Z,49.97
2018-12-30T01:12:55.361Z,51.67
2018-12-30T01:15:26.208Z,32.40
2018-12-30T01:17:56.608Z,39.83
2018-12-30T01:20:27.945Z,42.00
2018-12-30T01:22:58.153Z,44.37
2018-12-30T01:25:29.572Z,39.10
2018-12-30T01:27:59.571Z,37.53
2018-12-30T01:30:29.961Z,47.23
2018-12-30T01:33:00.216Z,44.67
2018-12-30T01:35:30.369Z,52.40
2018-12-30T01:38:00.243Z,42.33
2018-12-30T01:40:30.186Z,51.30
2018-12-30T01:43:00.183Z,41.93
2018-12-30T01:45:31.775Z,54.83
2018-12-30T01:48:02.371Z,56.60
2018-12-30T01:50:34.042Z,53.20
2018-12-30T01:53:04.348Z,60.87
2018-12-30T01:55:34.430Z,54.07
2018-12-30T01:58:06.390Z,51.23
2018-12-30T02:00:36.958Z,54.40
2018-12-30T02:03:13.416Z,37.27
2018-12-30T02:05:42.133Z,39.40
2018-12-30T02:08:12.336Z,38.07
2018-12-30T02:10:42.588Z,56.00
2018-12-30T02:13:14.452Z,51.13
2018-12-30T02:15:45.386Z,44.30
2018-12-30T02:18:15.159Z,47.27
2018-12-30T02:20:45.035Z,40.83
2018-12-30T02:23:15.813Z,48.33
2018-12-30T02:25:45.787Z,50.93
2018-12-30T02:28:16.589Z,28.83
2018-12-30T02:30:46.920Z,40.57
2018-12-30T02:33:16.875Z,28.90
2018-12-30T02:35:46.758Z,37.73
2018-12-30T02:38:16.660Z,45.50
2018-12-30T02:40:47.033Z,37.77
2018-12-30T02:43:17.109Z,30.40
2018-12-30T02:45:46.929Z,37.77
2018-12-30T02:48:18.755Z,53.27
2018-12-30T02:50:50.473Z,38.57
2018-12-30T02:53:20.795Z,50.70
2018-12-30T02:55:50.829Z,34.37
2018-12-30T02:58:21.355Z,38.73
2018-12-30T03:00:51.682Z,29.20
2018-12-30T03:06:36.935Z,64.03
2018-12-30T03:09:08.093Z,42.33
2018-12-30T03:11:41.445Z,30.47
2018-12-30T03:14:13.620Z,37.73
2018-12-30T03:16:51.131Z,38.83
2018-12-30T03:19:22.810Z,32.63
2018-12-30T03:21:59.296Z,37.07
2018-12-30T03:24:30.011Z,41.67
2018-12-30T03:27:05.937Z,43.37
2018-12-30T03:29:37.138Z,42.03
2018-12-30T03:32:07.577Z,50.87
2018-12-30T03:34:37.565Z,46.97
2018-12-30T03:37:08.958Z,55.50
2018-12-30T03:39:39.230Z,54.57
2018-12-30T03:42:14.701Z,58.07
2018-12-30T03:44:44.785Z,44.87
2018-12-30T03:47:14.709Z,26.27
2018-12-30T03:49:46.177Z,33.37
2018-12-30T03:52:16.897Z,28.13
2018-12-30T03:54:46.804Z,31.73
2018-12-30T03:57:17.193Z,24.13
2018-12-30T03:59:48.637Z,27.47
2018-12-30T04:02:21.540Z,39.90
2018-12-30T04:04:52.627Z,24.53
2018-12-30T04:07:22.537Z,30.37
2018-12-30T04:09:54.184Z,26.10
2018-12-30T04:12:25.133Z,32.73
2018-12-30T04:14:55.370Z,30.97
2018-12-30T04:17:25.491Z,38.70
2018-12-30T04:19:56.717Z,30.93
2018-12-30T04:22:26.755Z,41.13
2018-12-30T04:24:56.815Z,37.53
2018-12-30T04:27:28.424Z,40.33
2018-12-30T04:29:58.406Z,41.77
2018-12-30T04:32:28.231Z,40.50
2018-12-30T04:34:58.002Z,49.37
2018-12-30T04:37:29.652Z,42.33
2018-12-30T04:39:59.587Z,42.00
2018-12-30T04:42:29.461Z,42.17
2018-12-30T04:44:59.306Z,54.00
2018-12-30T04:47:29.331Z,46.57
2018-12-30T04:49:59.558Z,41.80
2018-12-30T04:52:29.524Z,35.03
2018-12-30T04:55:00.002Z,38.73
2018-12-30T04:57:32.236Z,50.10
2018-12-30T05:00:02.340Z,49.10
2018-12-30T05:02:33.675Z,36.63
2018-12-30T05:05:03.871Z,33.27
2018-12-30T05:07:34.226Z,60.20
2018-12-30T05:10:06.715Z,46.87
2018-12-30T05:12:36.631Z,30.10
2018-12-30T05:15:07.178Z,37.47
2018-12-30T05:17:38.736Z,38.93
2018-12-30T05:20:10.296Z,31.07
2018-12-30T05:22:40.283Z,34.17
2018-12-30T05:25:11.724Z,32.90
2018-12-30T05:27:42.203Z,41.77
2018-12-30T05:30:12.405Z,46.37
2018-12-30T05:32:42.586Z,46.47
2018-12-30T05:35:12.500Z,51.13
2018-12-30T05:37:42.422Z,39.93
2018-12-30T05:40:12.252Z,38.13
2018-12-30T05:42:42.276Z,38.77
2018-12-30T05:45:12.110Z,46.90
2018-12-30T05:47:42.184Z,48.93
2018-12-30T05:50:12.508Z,52.33
2018-12-30T05:52:42.546Z,52.00
2018-12-30T05:55:14.508Z,61.03
2018-12-30T05:57:44.932Z,38.17
2018-12-30T06:00:16.272Z,61.37
2018-12-30T06:02:50.413Z,74.30
2018-12-30T06:05:25.047Z,47.83
2018-12-30T06:07:55.529Z,26.53
2018-12-30T06:10:26.904Z,49.57
2018-12-30T06:12:57.196Z,68.50
2018-12-30T06:15:30.069Z,31.17
2018-12-30T06:18:02.901Z,50.97
2018-12-30T06:20:35.093Z,30.87
2018-12-30T06:23:05.081Z,16.57
2018-12-30T06:25:36.582Z,12.93
2018-12-30T06:28:06.974Z,14.37
2018-12-30T06:30:37.126Z,6.67
2018-12-30T06:33:07.758Z,7.47
2018-12-30T06:35:37.595Z,7.37
2018-12-30T06:38:07.541Z,15.00
2018-12-30T06:40:38.064Z,13.90
2018-12-30T06:43:08.218Z,37.57
2018-12-30T06:45:39.366Z,14.10
2018-12-30T06:48:09.506Z,37.00
2018-12-30T06:50:39.625Z,21.67
2018-12-30T06:53:10.620Z,17.50
2018-12-30T06:55:40.645Z,100.73
2018-12-30T06:58:10.516Z,12.50
2018-12-30T07:00:40.461Z,40.97
2018-12-30T07:03:18.901Z,12.33
2018-12-30T07:05:48.678Z,11.60
2018-12-30T07:08:18.620Z,21.37
2018-12-30T07:10:48.734Z,25.47
2018-12-30T07:13:18.661Z,26.63
2018-12-30T07:15:48.564Z,16.00
2018-12-30T07:18:18.367Z,15.17
2018-12-30T07:20:48.146Z,65.17
2018-12-30T07:23:18.061Z,32.23
2018-12-30T07:25:47.879Z,51.77
2018-12-30T07:28:17.673Z,22.73
2018-12-30T07:30:48.540Z,40.83
2018-12-30T07:33:18.311Z,24.90
2018-12-30T07:35:48.598Z,23.97
2018-12-30T07:38:27.276Z,10.97
2018-12-30T07:40:57.435Z,27.90
2018-12-30T07:43:31.703Z,37.83
2018-12-30T07:46:01.875Z,29.10
2018-12-30T07:48:35.194Z,40.70
2018-12-30T07:51:07.943Z,63.60
2018-12-30T07:53:38.320Z,57.47
2018-12-30T07:56:09.836Z,46.23
2018-12-30T07:58:40.119Z,70.33
2018-12-30T08:01:09.968Z,34.70
2018-12-30T08:03:43.336Z,25.37
2018-12-30T08:06:15.061Z,40.40
2018-12-30T08:08:55.006Z,23.73
2018-12-30T08:11:25.210Z,23.93
2018-12-30T08:13:55.111Z,19.17
2018-12-30T08:16:26.405Z,30.50
2018-12-30T08:18:57.680Z,44.90
2018-12-30T08:21:29.259Z,36.23
2018-12-30T08:24:00.509Z,29.07
2018-12-30T08:26:32.250Z,23.87
2018-12-30T08:29:02.418Z,49.77
2018-12-30T08:31:38.947Z,42.67
2018-12-30T08:34:10.404Z,28.20
2018-12-30T08:36:42.741Z,40.03
2018-12-30T08:39:14.245Z,28.37
2018-12-30T08:41:47.613Z,27.20
2018-12-30T08:44:19.242Z,34.40
2018-12-30T08:46:51.261Z,19.33
2018-12-30T08:49:25.152Z,50.50
2018-12-30T08:52:04.500Z,36.40
2018-12-30T08:54:35.010Z,71.13
2018-12-30T08:57:06.608Z,90.00
2018-12-30T08:59:37.566Z,46.07
2018-12-30T09:02:10.816Z,63.23
2018-12-30T09:04:42.283Z,47.63
2018-12-30T09:07:15.420Z,48.17
2018-12-30T09:09:45.284Z,39.00
2018-12-30T09:12:20.528Z,44.83
2018-12-30T09:14:52.090Z,36.33
2018-12-30T09:17:27.472Z,33.73
2018-12-30T09:19:58.846Z,72.03
2018-12-30T09:22:33.027Z,51.23
2018-12-30T09:25:11.092Z,68.30
2018-12-30T09:27:49.940Z,55.40
2018-12-30T09:30:24.751Z,66.63
2018-12-30T09:32:58.287Z,46.83
2018-12-30T09:35:31.561Z,61.50
2018-12-30T09:38:02.855Z,57.70
2018-12-30T09:40:34.552Z,62.13
2018-12-30T09:43:04.381Z,39.33
2018-12-30T09:45:35.257Z,50.50
2018-12-30T09:48:05.110Z,62.40
2018-12-30T09:50:34.928Z,83.60
2018-12-30T09:53:04.855Z,48.70
2018-12-30T09:55:34.800Z,106.63
2018-12-30T09:58:06.215Z,82.83
2018-12-30T10:00:36.578Z,71.63
2018-12-30T10:03:09.415Z,67.57
2018-12-30T10:05:39.462Z,37.80
2018-12-30T10:08:09.363Z,96.13
2018-12-30T10:10:39.363Z,63.17
2018-12-30T10:13:10.877Z,66.90
2018-12-30T10:15:42.158Z,57.73
2018-12-30T10:18:13.625Z,39.50
2018-12-30T10:20:46.780Z,49.13
2018-12-30T10:23:17.027Z,71.97
2018-12-30T10:25:47.015Z,40.27
2018-12-30T10:28:16.884Z,74.37
2018-12-30T10:30:47.078Z,58.13
2018-12-30T10:33:16.905Z,71.00
2018-12-30T10:35:46.847Z,45.23
2018-12-30T10:38:16.931Z,68.70
2018-12-30T10:40:47.172Z,77.80
2018-12-30T10:43:18.039Z,38.97
2018-12-30T10:45:47.816Z,23.43
2018-12-30T10:48:18.751Z,38.13
2018-12-30T10:50:53.127Z,59.17
2018-12-30T10:53:25.079Z,28.23
2018-12-30T10:55:54.896Z,15.13
2018-12-30T10:58:25.789Z,14.73
2018-12-30T11:00:56.332Z,39.03
2018-12-30T11:03:28.591Z,13.43
2018-12-30T11:05:58.924Z,13.20
2018-12-30T11:08:29.047Z,12.23
2018-12-30T11:10:58.848Z,14.43
2018-12-30T11:13:28.664Z,16.80
2018-12-30T11:15:58.630Z,19.47
2018-12-30T11:18:29.503Z,21.37
2018-12-30T11:21:01.630Z,21.13
2018-12-30T11:23:33.454Z,21.07
2018-12-30T11:26:04.859Z,20.67
2018-12-30T11:28:34.713Z,22.43
2018-12-30T11:31:04.581Z,22.87
2018-12-30T11:33:34.437Z,25.77
2018-12-30T11:36:04.578Z,22.17
2018-12-30T11:38:34.594Z,25.60
2018-12-30T11:41:06.864Z,25.97
2018-12-30T11:43:36.871Z,20.77
2018-12-30T11:46:08.113Z,22.80
2018-12-30T11:48:37.942Z,23.30
2018-12-30T11:51:07.775Z,24.30
2018-12-30T11:53:37.662Z,23.57
2018-12-30T11:56:07.591Z,25.20
2018-12-30T11:58:37.500Z,20.97
2018-12-30T12:01:07.415Z,20.93
2018-12-30T12:03:37.246Z,21.70
2018-12-30T12:06:07.134Z,23.10
2018-12-30T12:08:38.141Z,41.70
2018-12-30T12:11:08.140Z,29.20
2018-12-30T12:13:38.375Z,23.97
2018-12-30T12:16:08.254Z,58.60
2018-12-30T12:18:38.191Z,27.77
2018-12-30T12:21:10.093Z,47.43
2018-12-30T12:23:40.130Z,26.63
2018-12-30T12:26:10.113Z,24.20
2018-12-30T12:28:39.876Z,24.63
2018-12-30T12:31:09.772Z,22.40
2018-12-30T12:33:41.037Z,183.50
2018-12-30T12:36:11.017Z,26.73
2018-12-30T12:38:41.068Z,33.33
2018-12-30T12:41:10.875Z,25.83
2018-12-30T12:43:43.660Z,22.87
2018-12-30T12:46:13.433Z,24.47
2018-12-30T12:48:44.282Z,23.47
2018-12-30T12:51:14.226Z,27.10
2018-12-30T12:53:44.055Z,22.73
2018-12-30T12:56:15.388Z,20.57
2018-12-30T12:58:45.538Z,20.50
2018-12-30T13:01:15.385Z,21.27
2018-12-30T13:03:47.225Z,22.87
2018-12-30T13:06:17.808Z,22.30
2018-12-30T13:08:47.819Z,21.63
2018-12-30T13:11:17.831Z,21.97
2018-12-30T13:13:47.722Z,22.27
2018-12-30T13:16:18.563Z,20.77
2018-12-30T13:18:49.125Z,19.93
2018-12-30T13:21:19.054Z,19.73
2018-12-30T13:23:49.187Z,22.00
2018-12-30T13:26:19.073Z,21.50
2018-12-30T13:28:49.066Z,23.73
2018-12-30T13:31:19.071Z,23.33
2018-12-30T13:33:50.892Z,22.07
2018-12-30T13:36:21.018Z,22.57
2018-12-30T13:38:51.126Z,25.03
2018-12-30T13:41:21.390Z,23.50
2018-12-30T13:43:51.623Z,23.50
2018-12-30T13:46:21.487Z,24.07
2018-12-30T13:48:51.393Z,22.53
2018-12-30T13:51:21.510Z,22.13
2018-12-30T13:53:51.289Z,21.27
2018-12-30T13:56:24.524Z,22.10
2018-12-30T13:58:55.330Z,21.70
2018-12-30T14:01:37.233Z,23.20
2018-12-30T14:04:15.075Z,23.83
2018-12-30T14:06:50.954Z,23.30
2018-12-30T14:09:20.802Z,22.53
2018-12-30T14:11:55.744Z,23.20
2018-12-30T14:14:28.409Z,25.57
2018-12-30T14:17:07.154Z,25.57
2018-12-30T14:19:38.964Z,25.63
2018-12-30T14:22:12.635Z,27.47
2018-12-30T14:24:42.847Z,27.30
2018-12-30T14:27:18.083Z,29.50
2018-12-30T14:29:48.199Z,27.43
2018-12-30T14:32:21.260Z,28.20
2018-12-30T14:34:53.296Z,28.97
2018-12-30T14:37:30.080Z,29.43
2018-12-30T14:40:00.269Z,30.57
2018-12-30T14:42:32.546Z,32.93
2018-12-30T14:45:04.910Z,32.50
2018-12-30T14:47:49.785Z,34.73
2018-12-30T14:50:19.940Z,34.93
2018-12-30T14:52:50.085Z,37.80
2018-12-30T14:55:25.708Z,38.67
2018-12-30T14:57:59.154Z,37.87
2018-12-30T15:00:29.859Z,38.97
2018-12-30T15:03:08.714Z,37.20
2018-12-30T15:05:40.397Z,38.53
2018-12-30T15:08:10.635Z,36.90
2018-12-30T15:10:43.483Z,35.67
2018-12-30T15:13:14.954Z,37.73
2018-12-30T15:15:45.006Z,35.33
2018-12-30T15:18:17.560Z,37.33
2018-12-30T15:20:51.226Z,44.37
2018-12-30T15:23:26.614Z,38.77
2018-12-30T15:25:57.682Z,44.07
2018-12-30T15:28:27.535Z,38.77
2018-12-30T15:30:57.658Z,41.00
2018-12-30T15:33:35.475Z,44.57
2018-12-30T15:36:23.413Z,38.13
2018-12-30T15:39:05.639Z,38.50
2018-12-30T15:41:38.641Z,39.87
2018-12-30T15:44:13.918Z,52.77
2018-12-30T15:46:54.764Z,50.30
2018-12-30T15:49:27.814Z,83.40
2018-12-30T15:52:03.499Z,67.63
2018-12-30T15:55:11.204Z,77.57
2018-12-30T15:57:41.889Z,76.53
2018-12-30T16:00:11.924Z,85.23
2018-12-30T16:02:50.211Z,72.27
2018-12-30T16:05:23.826Z,73.97
2018-12-30T16:07:54.878Z,94.03
2018-12-30T16:10:27.335Z,112.50
2018-12-30T16:12:57.675Z,106.87
2018-12-30T16:15:28.114Z,106.23
2018-12-30T16:17:58.225Z,73.10
2018-12-30T16:20:33.814Z,122.93
2018-12-30T16:23:04.748Z,94.20
2018-12-30T16:25:36.473Z,106.63
2018-12-30T16:28:28.771Z,72.03
2018-12-30T16:31:00.705Z,117.20
2018-12-30T16:33:32.604Z,109.93
2018-12-30T16:36:04.823Z,122.10
2018-12-30T16:38:37.499Z,113.33
2018-12-30T16:41:09.487Z,197.73
2018-12-30T16:43:41.377Z,109.40
2018-12-30T16:46:11.354Z,66.77
2018-12-30T16:48:43.806Z,139.17
2018-12-30T16:51:27.816Z,122.50
2018-12-30T16:54:06.832Z,101.93
2018-12-30T16:56:44.327Z,97.90
2018-12-30T16:59:16.494Z,107.77
2018-12-30T17:01:47.038Z,59.60
2018-12-30T17:04:17.790Z,49.60
2018-12-30T17:06:53.361Z,84.20
2018-12-30T17:09:24.836Z,45.97
2018-12-30T17:12:02.777Z,43.57
2018-12-30T17:14:34.518Z,68.33
2018-12-30T17:17:10.261Z,56.43
2018-12-30T17:19:42.197Z,70.90
2018-12-30T17:22:16.533Z,88.07
2018-12-30T17:24:47.371Z,38.47
2018-12-30T17:27:25.436Z,42.77
2018-12-30T17:29:56.134Z,46.30
2018-12-30T17:32:39.170Z,42.47
2018-12-30T17:35:10.380Z,44.77
2018-12-30T17:37:42.652Z,43.00
2018-12-30T17:40:14.811Z,42.30
2018-12-30T17:42:51.582Z,38.93
2018-12-30T17:45:24.291Z,40.73
2018-12-30T17:47:58.720Z,45.77
2018-12-30T17:50:30.181Z,45.00
2018-12-30T17:53:05.383Z,58.27
2018-12-30T17:55:37.565Z,44.03
2018-12-30T17:58:09.498Z,56.07
2018-12-30T18:00:41.158Z,47.77
2018-12-30T18:03:13.517Z,49.17
2018-12-30T18:05:46.115Z,53.93
2018-12-30T18:08:17.611Z,47.27
2018-12-30T18:10:48.164Z,49.47
2018-12-30T18:13:19.192Z,44.63
2018-12-30T18:15:49.978Z,49.10
2018-12-30T18:18:23.514Z,74.50
2018-12-30T18:21:03.616Z,61.87
2018-12-30T18:23:36.686Z,45.50
2018-12-30T18:26:07.965Z,60.13
2018-12-30T18:28:40.793Z,51.10
2018-12-30T18:31:13.158Z,59.90
2018-12-30T18:33:43.700Z,60.23
2018-12-30T18:36:15.870Z,44.27
2018-12-30T18:38:47.270Z,44.47
2018-12-30T18:41:19.170Z,39.67
2018-12-30T18:43:49.412Z,45.33
2018-12-30T18:46:21.057Z,41.10
2018-12-30T18:48:51.641Z,41.43
2018-12-30T18:51:26.024Z,36.33
2018-12-30T18:53:56.877Z,43.53
2018-12-30T18:56:31.404Z,40.27
2018-12-30T18:59:01.743Z,36.17
2018-12-30T19:01:33.354Z,37.40
2018-12-30T19:04:09.231Z,39.47
2018-12-30T19:06:42.410Z,34.80
2018-12-30T19:09:13.152Z,35.60
2018-12-30T19:11:45.724Z,150.57
2018-12-30T19:14:16.658Z,54.23
2018-12-30T19:16:52.759Z,44.17
2018-12-30T19:19:24.546Z,39.27
2018-12-30T19:21:56.621Z,35.27
2018-12-30T19:24:30.248Z,35.80
2018-12-30T19:27:05.285Z,44.17
2018-12-30T19:29:39.350Z,35.90
2018-12-30T19:32:12.526Z,35.97
2018-12-30T19:34:43.961Z,36.93
2018-12-30T19:37:18.618Z,32.37
2018-12-30T19:39:49.789Z,35.13
2018-12-30T19:42:23.620Z,33.50
2018-12-30T19:44:54.228Z,34.27
2018-12-30T19:47:30.807Z,39.20
2018-12-30T19:50:02.504Z,41.87
2018-12-30T19:52:37.613Z,35.53
2018-12-30T19:55:09.609Z,32.47
2018-12-30T19:57:44.796Z,36.67
2018-12-30T20:00:20.000Z,36.50
2018-12-30T20:02:50.312Z,37.30
2018-12-30T20:05:24.335Z,35.40
2018-12-30T20:07:56.082Z,33.20
2018-12-30T20:10:29.200Z,32.03
2018-12-30T20:13:08.906Z,50.23
2018-12-30T20:15:35.291Z,32.83
2018-12-30T20:18:05.206Z,38.83
2018-12-30T20:20:35.025Z,31.83
2018-12-30T20:23:05.231Z,28.37
2018-12-30T20:25:37.024Z,25.50
2018-12-30T20:28:10.489Z,26.23
2018-12-30T20:30:49.873Z,30.17
2018-12-30T20:33:22.256Z,31.07
2018-12-30T20:35:58.049Z,28.60
2018-12-30T20:38:32.062Z,39.43
2018-12-30T20:41:05.261Z,29.13
2018-12-30T20:43:35.799Z,27.07
2018-12-30T20:46:07.125Z,25.10
2018-12-30T20:48:39.854Z,23.50
2018-12-30T20:51:11.085Z,24.17
2018-12-30T20:53:41.843Z,23.67
2018-12-30T20:56:14.241Z,21.43
2018-12-30T20:58:46.303Z,22.67
2018-12-30T21:01:16.893Z,21.70
2018-12-30T21:03:48.195Z,23.10
2018-12-30T21:06:21.576Z,23.50
2018-12-30T21:08:52.457Z,24.27
2018-12-30T21:11:26.874Z,20.27
2018-12-30T21:13:57.362Z,20.93
2018-12-30T21:16:29.427Z,21.40
2018-12-30T21:19:02.256Z,20.63
2018-12-30T21:21:32.104Z,20.50
2018-12-30T21:24:03.638Z,23.30
2018-12-30T21:26:36.162Z,26.10
2018-12-30T21:29:09.227Z,22.10
2018-12-30T21:31:49.874Z,20.13
2018-12-30T21:34:26.122Z,21.57
2018-12-30T21:37:05.396Z,19.83
2018-12-30T21:39:43.403Z,20.00
2018-12-30T21:42:29.390Z,20.93
2018-12-30T21:45:07.520Z,20.43
2018-12-30T21:47:51.076Z,20.93
2018-12-30T21:50:38.545Z,23.07
2018-12-30T21:53:16.230Z,22.00
2018-12-30T21:56:16.011Z,21.20
2018-12-30T21:59:07.678Z,21.17
2018-12-30T22:01:42.729Z,21.30
2018-12-30T22:04:27.094Z,21.57
2018-12-30T22:07:16.070Z,21.47
2018-12-30T22:09:45.952Z,22.00
2018-12-30T22:12:39.201Z,22.63
2018-12-30T22:15:25.665Z,22.37
2018-12-30T22:18:09.810Z,20.07
2018-12-30T22:20:46.938Z,20.00
2018-12-30T22:23:34.743Z,22.20
2018-12-30T22:26:12.454Z,20.90
2018-12-30T22:28:57.918Z,19.70
2018-12-30T22:31:43.120Z,18.23
2018-12-30T22:34:22.207Z,18.70
2018-12-30T22:37:02.974Z,18.00
2018-12-30T22:39:43.625Z,17.57
2018-12-30T22:42:46.187Z,17.80
2018-12-30T22:45:24.743Z,18.47
2018-12-30T22:48:10.435Z,19.00
2018-12-30T22:50:49.924Z,17.33
2018-12-30T22:53:24.660Z,15.77
2018-12-30T22:56:05.645Z,15.20
2018-12-30T22:59:29.504Z,13.97
2018-12-30T23:02:23.810Z,13.40
2018-12-30T23:05:13.408Z,11.87
2018-12-30T23:07:49.939Z,11.17
2018-12-30T23:10:30.800Z,14.23
2018-12-30T23:13:16.509Z,13.00
2018-12-30T23:16:09.652Z,12.73
2018-12-30T23:18:59.570Z,12.13
2018-12-30T23:21:36.951Z,11.60
2018-12-30T23:24:24.829Z,12.13
2018-12-30T23:27:15.400Z,10.07
2018-12-30T23:30:09.145Z,9.43
2018-12-30T23:32:53.967Z,8.67
2018-12-30T23:35:31.031Z,7.27
2018-12-30T23:38:10.861Z,8.30
2018-12-30T23:40:53.464Z,7.30
2018-12-30T23:43:26.864Z,9.00
2018-12-30T23:46:05.792Z,6.50
2018-12-30T23:48:53.690Z,6.83
2018-12-30T23:51:35.872Z,8.83
2018-12-30T23:54:17.892Z,8.30
2018-12-30T23:56:53.295Z,9.00
2018-12-30T23:59:36.436Z,10.13
